Terminal Aerodrome Forecast
Issued by NWS

Home | Current Version | Previous Version | Text Only | Print | Product List | Glossary On
Versions: 1 2 3 4 5 6 7 8 9 10 11 12 13 14 15 16 17 18 19
956
FTAK31 PAJN 292322
TAFAKT
TAF
PAKT 292322Z 3000/3024 33010KT P6SM VCSH SCT035 BKN050
     FM300600 32005KT P6SM VCSH SCT015 BKN025 OVC040
     FM300900 32005KT P6SM VCSH BKN015 OVC022
     FM301800 34007KT P6SM VCSH SCT015 BKN025 OVC060
     FM302100 34010KT P6SM SCT030 BKN060
      AMD LTD TO CLD VIS AND WIND 3006/3015=

USA.gov is the U.S. government's official web portal to all federal, state and local government web resources and services.